Bookmark and Share
Track history (hours):
 

Drifting buoy 55956

Last reported at 2013-Jul-14 23:10 UTC. Time now 2014-Apr-16 07:41 UTC.
Position S 33°34' W 089°07'.
Warning: this ship's position is months out of date.

Barometer 1029.5 mb
Water temperature 16.0 ° C

NotesDate/timePositionNaut miles runAvg speedWind from/ knotsBaromVisibWave heightAir tempDewpointWater temp
2013-Jul-14 23:10S 33°34' W 089°07'0 0.0 1029.5 16.0
2013-Jul-14 22:10S 33°34' W 089°07'1 0.3 1029.4 16.0
2013-Jul-14 20:10S 33°34' W 089°08'1 0.3 1029.2 16.2
2013-Jul-14 18:10S 33°34' W 089°09'0 0.1 1030.3 15.9
2013-Jul-14 16:10S 33°34' W 089°09'0 0.0 1031.1 15.7
2013-Jul-14 15:10S 33°34' W 089°09'0 0.2 1030.9 15.6
2013-Jul-14 14:10S 33°34' W 089°09'1 0.3 1030.5 15.6
2013-Jul-14 12:10S 33°34' W 089°09'1 0.3
2013-Jul-14 10:10S 33°35' W 089°09'0 0.3 1029.5 15.6
2013-Jul-14 09:10S 33°35' W 089°10'1 0.8 1029.9 15.6
2013-Jul-14 08:10S 33°35' W 089°10'0 0.0
2013-Jul-14 07:10S 33°35' W 089°10'0 0.4 1030.1 15.6
2013-Jul-14 06:10S 33°36' W 089°11'0 0.0 1030.4 15.6
2013-Jul-14 05:10S 33°36' W 089°11'0 0.1 1030.6 15.6
2013-Jul-14 04:10S 33°36' W 089°11'0 0.4 1030.7 15.6
2013-Jul-14 03:10S 33°36' W 089°12'1 0.8 1030.4 15.5
2013-Jul-14 02:10S 33°36' W 089°12'0 0.5 1030.4 15.5
2013-Jul-14 01:10S 33°37' W 089°12'0 0.0 1030.2 15.5
2013-Jul-14 00:10S 33°37' W 089°12'1 1.1 1029.9 15.5
2013-Jul-13 23:10S 33°37' W 089°14'0 0.0 1029.5 15.5
2013-Jul-13 22:10S 33°37' W 089°14'1 0.4 1029.4 15.6
2013-Jul-13 20:10S 33°37' W 089°14'0 0.2 1029.1 15.6
2013-Jul-13 19:10S 33°37' W 089°15'2 0.4 1029.4 15.6
2013-Jul-13 15:10S 33°38' W 089°17'0 0.1 1030.2 15.4
2013-Jul-13 14:10S 33°38' W 089°17'1 0.3 1030.0 15.4
2013-Jul-13 12:10S 33°38' W 089°17'2 0.4 1029.1 15.6
2013-Jul-13 07:10S 33°40' W 089°19'3 0.6 1028.5 16.0
2013-Jul-13 02:10S 33°40' W 089°23'1 1.0 1028.8 16.1
2013-Jul-13 01:10S 33°41' W 089°24'0 0.0 1028.5 16.1
2013-Jul-13 00:10S 33°41' W 089°24'2 1.1 1028.0 16.1
2013-Jul-12 22:10S 33°40' W 089°26'0 0.0 1027.5 16.1
2013-Jul-12 21:10S 33°40' W 089°26'1 0.8 1027.6 16.1
2013-Jul-12 20:10S 33°40' W 089°27'0 0.1 1027.5 16.1
2013-Jul-12 19:10S 33°40' W 089°27'0 0.0 1027.3 16.1
2013-Jul-12 18:10S 33°40' W 089°27'1 0.5 1027.6 16.1
2013-Jul-12 16:10S 33°39' W 089°28'2 0.4 1028.4 16.1
2013-Jul-12 12:10S 33°41' W 089°29'0 0.0 1027.3 16.0
2013-Jul-12 11:10S 33°41' W 089°29'1 0.6 1027.0 16.0
2013-Jul-12 09:10S 33°41' W 089°30'0 0.1 1027.1 16.0
2013-Jul-12 08:10S 33°41' W 089°30'3 1.0 1027.5 16.0
2013-Jul-12 05:10S 33°42' W 089°34'0 0.0 1028.4 16.0
2013-Jul-12 04:10S 33°42' W 089°34'2 0.6 1028.2 16.1
2013-Jul-12 01:10S 33°42' W 089°36'0 0.1 1027.7 16.1
2013-Jul-11 23:10S 33°42' W 089°36'1 0.8 1026.8 16.1
2013-Jul-11 22:10S 33°41' W 089°37'0 0.0 1026.5 16.1
2013-Jul-11 21:10S 33°41' W 089°37'1 0.5 1026.4 16.1
2013-Jul-11 20:10S 33°41' W 089°38'1 0.7 1026.3 16.1
2013-Jul-11 19:10S 33°41' W 089°39'0 0.0 1026.8 16.1
2013-Jul-11 18:10S 33°41' W 089°39'0 0.0 1027.0 16.1
2013-Jul-11 15:10S 33°41' W 089°39'1 0.6 1027.2 16.0
2013-Jul-11 14:10S 33°42' W 089°39'0 0.0 1026.7 16.0
2013-Jul-11 13:10S 33°42' W 089°39'1 0.8 1026.2 16.0
2013-Jul-11 12:10S 33°42' W 089°40'0 0.0 1025.6 16.0
2013-Jul-11 11:10S 33°42' W 089°40'2 1.1 1025.1 16.0
2013-Jul-11 09:10S 33°43' W 089°42'2 1.6 1024.9 16.0
2013-Jul-11 08:10S 33°43' W 089°44'1 1.2 1024.8 16.0
2013-Jul-11 07:10S 33°43' W 089°43'1 0.6 1025.0 16.1
2013-Jul-11 05:10S 33°43' W 089°44'1 0.3 1025.2 16.1
2013-Jul-11 01:10S 33°43' W 089°45'0 0.2 1024.0 16.1
2013-Jul-10 22:10S 33°43' W 089°45'1 0.4 1022.2 16.1
2013-Jul-10 20:10S 33°43' W 089°45'2 2.0 1021.1 16.1
2013-Jul-10 19:10S 33°45' W 089°45'1 0.4 1021.1 16.1
2013-Jul-10 16:10S 33°46' W 089°46'0 0.0 1020.9 16.0
2013-Jul-10 15:10S 33°46' W 089°46'3 0.5 1020.1 16.0
2013-Jul-10 10:10S 33°49' W 089°48'3 1.7 1015.3 16.0
2013-Jul-10 08:10S 33°51' W 089°51'0 0.0 1014.6 16.0
2013-Jul-10 07:10S 33°51' W 089°51'0 0.1
2013-Jul-10 05:10S 33°51' W 089°51'1 1.3 1013.1 15.9
2013-Jul-10 04:10S 33°51' W 089°52'0 0.1 1012.1 15.9
2013-Jul-10 03:10S 33°51' W 089°52'0 0.0
2013-Jul-10 02:10S 33°51' W 089°52'2 0.5 1010.3 15.9
2013-Jul-09 21:10S 33°53' W 089°54'2 0.9 1005.9 15.8
2013-Jul-09 19:10S 33°54' W 089°56'2 2.2 1004.1 15.8
2013-Jul-09 18:10S 33°56' W 089°57'0 0.0
2013-Jul-09 17:10S 33°56' W 089°57'0 0.1 1004.3 15.8
2013-Jul-09 16:10S 33°56' W 089°57'2 1.2 1004.9 15.8
2013-Jul-09 14:10S 33°57' W 089°59'2 0.6 1005.3 15.9
2013-Jul-09 10:10S 33°58' W 090°02'1 1.4 1005.0 15.9
2013-Jul-09 09:10S 33°58' W 090°04'1 0.5 1005.3 15.9
2013-Jul-09 07:10S 33°58' W 090°05'2 0.8 1005.5 16.0
2013-Jul-09 05:10S 33°57' W 090°06'1 0.7 1008.4 15.9
2013-Jul-09 04:10S 33°56' W 090°06'1 0.8 1008.9 16.0
2013-Jul-09 03:10S 33°56' W 090°07'1 1.2 1010.1 16.0
2013-Jul-09 02:10S 33°55' W 090°08'0 0.0 1010.4 16.1
2013-Jul-09 00:10S 33°55' W 090°08'2 0.7 1010.7 16.1
2013-Jul-08 21:10S 33°53' W 090°06'1 0.5 1011.2 16.2
2013-Jul-08 20:10S 33°53' W 090°07'0 0.0 1011.4 16.2
2013-Jul-08 19:10S 33°53' W 090°07'0 0.1 1012.1 16.1
2013-Jul-08 18:10S 33°53' W 090°07'2 1.0 1012.5 16.1
2013-Jul-08 16:10S 33°55' W 090°05'2 0.5 1013.8 16.1
2013-Jul-08 13:10S 33°56' W 090°06'0 0.0 1012.9 16.1
2013-Jul-08 06:10S 33°56' W 090°06'1 0.5 1013.3 16.0
2013-Jul-08 04:10S 33°56' W 090°05'2 0.8 1013.4 16.0
2013-Jul-08 02:10S 33°55' W 090°03'0 0.0 1013.4 16.0
2013-Jul-08 01:10S 33°55' W 090°03'1 0.7 1013.2 16.0
2013-Jul-07 23:10S 33°56' W 090°01'2 0.9 1012.5 15.9
2013-Jul-07 21:10S 33°56' W 089°59'3 2.7 1012.3 15.8
2013-Jul-07 20:10S 33°58' W 089°57'2 0.4 1012.5 15.8
2013-Jul-07 16:10S 33°60' W 089°56'1 0.3 1014.1 15.8
2013-Jul-07 12:10S 33°60' W 089°54'1 0.7 1012.6 15.6
2013-Jul-07 11:10S 33°59' W 089°54'1 0.9 1012.1 15.6
2013-Jul-07 10:10S 33°59' W 089°53'2 0.7 1012.3 15.6
2013-Jul-07 07:10S 33°58' W 089°50'2 1.2 1012.2 15.8
2013-Jul-07 05:10S 33°58' W 089°47'1 0.9 1012.2 15.8
2013-Jul-07 04:10S 33°58' W 089°46'2 2.2 1011.9 15.8
2013-Jul-07 03:10S 33°57' W 089°44'2 1.0 1011.7 15.6
2013-Jul-07 01:10S 33°57' W 089°42'0 0.2 1010.3 15.6
2013-Jul-06 23:10S 33°57' W 089°41'1 1.4 1008.4 15.8
2013-Jul-06 22:10S 33°57' W 089°40'0 0.0 1007.9 15.8
2013-Jul-06 21:10S 33°57' W 089°40'1 1.0 1007.6 15.8
2013-Jul-06 20:10S 33°57' W 089°38'1 0.5 1007.1 15.8
2013-Jul-06 19:10S 33°57' W 089°38'2 1.6 1007.6 15.8
2013-Jul-06 18:10S 33°56' W 089°36'6 0.7 1007.7 15.8
2013-Jul-06 09:10S 33°51' W 089°32'0 0.0 1003.2 16.2
2013-Jul-06 08:10S 33°51' W 089°32'2 1.6 1003.1 16.2
2013-Jul-06 07:10S 33°50' W 089°30'1 0.3 1002.8 16.2
2013-Jul-06 03:10S 33°51' W 089°28'0 0.3 1001.6 16.4
2013-Jul-06 02:10S 33°51' W 089°29'0 0.4 1001.2 16.4
2013-Jul-06 01:10S 33°50' W 089°29'0 0.2 1000.9 16.3
2013-Jul-06 00:10S 33°50' W 089°29'2 0.7 1000.6 16.2
2013-Jul-05 21:10S 33°48' W 089°30'1 0.7 999.7 16.1
2013-Jul-05 20:10S 33°48' W 089°29'1 1.2 1000.0 16.2
2013-Jul-05 19:10S 33°47' W 089°30'0 0.0 1000.1 16.3
2013-Jul-05 18:10S 33°47' W 089°30'4 1.9 1001.0 16.4
2013-Jul-05 16:10S 33°43' W 089°29'1 0.9 1003.3 16.5
2013-Jul-05 15:10S 33°42' W 089°29'1 0.8 1003.2 16.5
2013-Jul-05 14:10S 33°41' W 089°29'4 0.9 1003.3 16.5
2013-Jul-05 10:10S 33°38' W 089°30'2 0.5 1006.3 16.2
2013-Jul-05 07:10S 33°36' W 089°30'1 0.5 1010.1 16.2
2013-Jul-05 04:10S 33°35' W 089°30'0 0.3 1014.6 16.1
2013-Jul-05 03:10S 33°35' W 089°30'2 1.6 1015.5 16.4
2013-Jul-05 02:10S 33°33' W 089°31'1 0.5 1016.2 16.5
2013-Jul-05 01:10S 33°34' W 089°31'   1016.9 16.6

Dump ship's entire track history

sailing weather and tide predictions

Buoy 55956